Time;durP1;ratioP1;P1;durP2;ratioP2;P2;SDS_P1;SDS_P2;PMS_P1;PMS_P2;Temp;Humidity;BMP_temperature;BMP_pressure;BME280_temperature;BME280_humidity;BME280_pressure;Samples;Min_cycle;Max_cycle;Signal;HPM_P1;HPM_P2
2022/06/04 00:00:36;;;;;;;86.25;37.65;;;;;;;27.29;58.48;97272.31;5125508;27;20497;-74
2022/06/04 00:03:26;;;;;;;81.70;37.17;;;;;;;27.30;60.77;97278.41;5124747;27;20039;-73
2022/06/04 00:06:15;;;;;;;96.90;38.15;;;;;;;27.27;60.37;97276.16;5126263;27;20054;-73
2022/06/04 00:08:56;;;;;;;80.43;36.38;;;;;;;27.28;62.26;97278.63;5123426;27;20134;-74
2022/06/04 00:15:35;;;;;;;81.28;35.72;;;;;;;27.27;61.21;97287.56;5121810;27;20051;-71
2022/06/04 00:18:19;;;;;;;79.18;36.70;;;;;;;27.29;61.37;97288.19;5112844;27;20054;-73
2022/06/04 00:21:08;;;;;;;104.40;36.65;;;;;;;27.30;60.35;97299.56;5122120;27;20162;-73
2022/06/04 00:24:04;;;;;;;96.50;38.00;;;;;;;27.28;62.24;97299.78;5125334;27;20046;-72
2022/06/04 00:26:39;;;;;;;108.85;38.42;;;;;;;27.34;59.98;97308.78;5125146;27;20107;-72
2022/06/04 00:29:30;;;;;;;100.70;37.47;;;;;;;27.35;63.60;97299.84;5123046;27;20129;-70
2022/06/04 00:32:12;;;;;;;114.85;40.53;;;;;;;27.43;64.26;97303.22;5122124;27;20043;-73
2022/06/04 00:35:05;;;;;;;102.47;38.63;;;;;;;27.43;60.80;97308.50;5127302;27;20560;-72
2022/06/04 00:37:51;;;;;;;97.32;38.10;;;;;;;27.45;66.47;97313.59;5127011;27;20437;-72
2022/06/04 00:41:07;;;;;;;111.00;39.22;;;;;;;27.42;62.02;97322.72;5133882;27;20058;-72
2022/06/04 00:44:32;;;;;;;111.57;39.78;;;;;;;27.57;64.38;97322.72;5134091;27;20508;-73
2022/06/04 00:47:42;;;;;;;100.35;38.03;;;;;;;27.61;68.04;97323.19;5133522;27;20053;-73
2022/06/04 00:50:34;;;;;;;95.47;40.10;;;;;;;27.64;64.87;97323.63;5120062;27;20043;-70
2022/06/04 00:53:15;;;;;;;90.75;38.60;;;;;;;27.72;63.49;97327.97;5133357;27;20043;-71
2022/06/04 00:56:12;;;;;;;85.85;37.28;;;;;;;27.76;66.70;97324.78;5136563;27;20039;-71
2022/06/04 00:59:46;;;;;;;93.30;37.35;;;;;;;27.86;66.68;97334.25;5129289;27;20640;-72
2022/06/04 01:02:34;;;;;;;107.95;38.65;;;;;;;27.88;66.03;97335.69;5129757;27;20074;-72
2022/06/04 01:05:31;;;;;;;94.28;39.97;;;;;;;28.00;68.29;97336.03;5133426;27;20058;-72
2022/06/04 01:08:25;;;;;;;97.03;39.10;;;;;;;28.03;69.28;97340.91;5127590;27;20051;-73
2022/06/04 01:12:09;;;;;;;91.30;38.53;;;;;;;28.10;70.33;97347.09;5128090;28;20051;-70
2022/06/04 01:15:01;;;;;;;89.63;38.65;;;;;;;28.19;70.21;97346.00;5122410;28;20066;-72
2022/06/04 01:18:21;;;;;;;95.93;40.15;;;;;;;28.27;69.34;97353.81;5119019;28;20062;-72
2022/06/04 01:21:20;;;;;;;82.78;39.13;;;;;;;28.37;70.23;97356.97;5125013;27;20059;-73
2022/06/04 01:24:26;;;;;;;80.85;39.63;;;;;;;28.44;70.17;97355.19;5123516;28;20058;-71
2022/06/04 01:27:19;;;;;;;85.85;40.58;;;;;;;28.54;70.85;97355.69;5104978;27;20047;-72
2022/06/04 01:30:11;;;;;;;97.85;41.15;;;;;;;28.65;70.70;97361.50;5124214;27;20108;-73
2022/06/04 01:33:05;;;;;;;87.90;41.45;;;;;;;28.73;68.04;97364.81;5106784;27;20107;-71
2022/06/04 01:36:09;;;;;;;101.32;43.35;;;;;;;28.88;71.46;97362.94;5135024;27;20034;-73
2022/06/04 01:38:53;;;;;;;91.50;39.78;;;;;;;29.04;72.92;97363.63;5125561;27;20490;-72
2022/06/04 01:41:47;;;;;;;88.82;42.67;;;;;;;29.14;72.67;97362.25;5126288;27;20135;-73
2022/06/04 01:44:45;;;;;;;98.05;41.05;;;;;;;29.30;73.51;97369.88;5098312;27;20092;-73
2022/06/04 01:47:36;;;;;;;98.65;43.20;;;;;;;29.57;74.51;97367.41;5127129;27;20050;-71
2022/06/04 01:50:24;;;;;;;100.30;43.08;;;;;;;29.91;70.36;97375.28;5133421;27;20099;-71
2022/06/04 01:53:16;;;;;;;114.22;46.30;;;;;;;30.48;66.31;97374.00;5135262;27;20042;-71
2022/06/04 01:56:10;;;;;;;104.75;47.90;;;;;;;30.80;67.09;97375.88;5133708;27;20043;-71
2022/06/04 01:59:05;;;;;;;105.60;48.13;;;;;;;31.26;60.27;97384.81;5123958;27;20092;-73
2022/06/04 02:01:52;;;;;;;110.60;48.97;;;;;;;31.70;61.89;97381.41;5125634;27;20661;-72
2022/06/04 02:04:54;;;;;;;99.00;46.47;;;;;;;32.13;56.05;97393.09;5122645;27;20056;-71
2022/06/04 02:07:47;;;;;;;118.45;49.63;;;;;;;32.57;54.38;97394.03;5127273;27;20071;-72
2022/06/04 02:10:32;;;;;;;137.00;50.88;;;;;;;32.95;54.47;97402.00;5120110;27;20057;-72
2022/06/04 02:13:24;;;;;;;121.55;49.70;;;;;;;33.20;57.06;97399.28;5127760;27;20521;-72
2022/06/04 02:16:21;;;;;;;118.68;50.10;;;;;;;33.50;55.27;97400.22;5108562;27;20815;-73
2022/06/04 02:19:11;;;;;;;117.45;51.00;;;;;;;33.77;51.75;97406.09;5122431;27;20146;-72
2022/06/04 02:22:07;;;;;;;116.35;53.92;;;;;;;34.18;49.60;97405.34;5115511;27;20637;-73
2022/06/04 02:24:55;;;;;;;112.47;54.22;;;;;;;34.33;49.40;97400.41;5115775;27;20054;-73
2022/06/04 02:27:46;;;;;;;122.75;53.60;;;;;;;34.54;48.41;97399.09;5124184;27;20099;-75
2022/06/04 02:30:45;;;;;;;112.75;52.55;;;;;;;34.87;48.53;97398.59;5108696;27;20374;-74
2022/06/04 02:33:48;;;;;;;128.35;53.17;;;;;;;35.00;49.70;97398.34;5125036;27;20050;-74
2022/06/04 02:36:33;;;;;;;125.03;53.60;;;;;;;35.36;50.44;97408.00;5122539;27;20154;-75
2022/06/04 02:39:44;;;;;;;105.53;52.28;;;;;;;35.57;47.67;97406.59;5119436;27;20107;-74
2022/06/04 02:42:42;;;;;;;128.15;53.67;;;;;;;35.76;44.28;97404.63;5117870;27;20135;-74
2022/06/04 02:45:38;;;;;;;110.32;53.20;;;;;;;35.75;52.03;97401.13;5117517;27;20099;-74
2022/06/04 02:48:32;;;;;;;116.13;52.25;;;;;;;36.18;47.52;97403.25;5104830;27;20036;-74
2022/06/04 02:51:31;;;;;;;123.20;52.17;;;;;;;36.51;47.02;97412.47;5113867;27;20055;-74
2022/06/04 02:55:04;;;;;;;110.95;51.10;;;;;;;36.29;46.25;97415.03;5107304;27;20044;-72
2022/06/04 02:57:58;;;;;;;111.07;51.92;;;;;;;36.64;45.81;97414.84;5096449;27;20043;-75
2022/06/04 03:00:42;;;;;;;113.05;52.50;;;;;;;36.96;39.75;97420.50;5110900;27;20058;-75
2022/06/04 03:03:32;;;;;;;119.03;51.50;;;;;;;36.94;40.09;97427.97;5115957;27;20637;-75
2022/06/04 03:06:27;;;;;;;111.43;51.78;;;;;;;37.22;39.80;97425.19;5111810;27;20139;-75
2022/06/04 03:09:22;;;;;;;110.03;51.83;;;;;;;37.37;40.44;97421.91;5114251;27;20074;-75
2022/06/04 03:12:14;;;;;;;101.60;47.72;;;;;;;37.51;44.59;97423.19;5117989;27;20757;-73
2022/06/04 03:14:56;;;;;;;102.10;47.75;;;;;;;37.77;45.99;97421.66;5123336;27;20467;-74
2022/06/04 03:17:47;;;;;;;109.03;49.17;;;;;;;37.76;44.40;97414.66;5121922;27;20684;-75
2022/06/04 03:20:36;;;;;;;96.72;45.88;;;;;;;37.78;38.04;97423.28;5121164;27;20051;-74
2022/06/04 03:23:17;;;;;;;104.38;46.10;;;;;;;38.31;42.69;97421.75;5119307;27;20035;-73
2022/06/04 03:26:07;;;;;;;86.10;43.10;;;;;;;38.51;39.36;97421.97;5127474;27;20122;-72
2022/06/04 03:28:48;;;;;;;96.50;41.50;;;;;;;38.65;39.31;97423.19;5142672;27;20328;-73
2022/06/04 03:31:39;;;;;;;85.13;35.20;;;;;;;38.73;36.63;97420.00;5119139;27;20036;-72
2022/06/04 03:34:27;;;;;;;71.00;29.45;;;;;;;38.80;29.12;97433.25;5097184;28;20090;-73
2022/06/04 03:37:17;;;;;;;65.40;30.35;;;;;;;38.83;37.15;97432.75;5117215;27;20109;-74
2022/06/04 03:39:58;;;;;;;71.63;30.27;;;;;;;38.67;39.09;97429.13;5126044;27;20043;-74
2022/06/04 03:42:48;;;;;;;61.67;28.73;;;;;;;38.81;39.94;97422.22;5126047;27;20055;-73
2022/06/04 03:45:30;;;;;;;68.63;28.00;;;;;;;39.48;34.36;97431.63;5126587;27;20318;-73
2022/06/04 03:48:19;;;;;;;76.88;31.08;;;;;;;39.21;30.13;97446.00;5130317;27;20039;-73
2022/06/04 03:51:14;;;;;;;61.42;28.45;;;;;;;39.78;33.82;97437.97;5127838;27;20049;-73
2022/06/04 03:53:49;;;;;;;68.68;28.58;;;;;;;39.85;36.56;97447.75;5125992;27;20054;-73
2022/06/04 03:57:37;;;;;;;53.20;26.00;;;;;;;39.63;38.44;97440.63;5126137;27;20055;-72
2022/06/04 03:59:40;;;;;;;53.60;22.88;;;;;;;39.63;35.29;97440.63;5122646;27;20075;-73
2022/06/04 04:02:28;;;;;;;39.58;20.23;;;;;;;39.87;38.33;97440.22;5130438;27;20115;-72
2022/06/04 04:05:13;;;;;;;44.60;19.55;;;;;;;39.90;34.56;97434.28;5147142;27;20053;-72
2022/06/04 04:08:04;;;;;;;43.70;17.88;;;;;;;40.03;38.00;97433.78;5146307;27;20042;-72
2022/06/04 04:10:53;;;;;;;45.95;18.77;;;;;;;40.27;36.92;97431.44;5126095;27;20150;-73
2022/06/04 04:13:34;;;;;;;45.38;20.20;;;;;;;40.17;36.46;97441.09;5125780;27;20744;-72
2022/06/04 04:16:26;;;;;;;31.67;16.08;;;;;;;40.43;35.85;97438.50;5125892;27;20055;-72
2022/06/04 04:19:07;;;;;;;47.00;17.02;;;;;;;40.35;32.22;97445.25;5126026;27;20116;-69
2022/06/04 04:21:57;;;;;;;38.85;15.45;;;;;;;40.43;35.36;97441.19;5124652;27;20103;-72
2022/06/04 04:24:38;;;;;;;30.07;12.80;;;;;;;40.32;33.19;97440.34;5107309;27;20051;-72
2022/06/04 04:27:28;;;;;;;34.38;13.20;;;;;;;40.50;32.29;97447.97;5112253;27;20055;-72
2022/06/04 04:30:28;;;;;;;31.63;11.40;;;;;;;40.53;30.31;97450.13;5125806;27;20086;-72
2022/06/04 04:33:05;;;;;;;40.53;12.23;;;;;;;40.75;32.79;97444.50;5125630;27;20051;-71
2022/06/04 04:35:54;;;;;;;40.33;13.00;;;;;;;40.55;32.21;97449.06;5125505;27;20078;-69
2022/06/04 04:38:45;;;;;;;32.28;11.60;;;;;;;40.44;36.26;97445.53;5125470;27;20036;-71
2022/06/04 04:41:27;;;;;;;32.88;11.20;;;;;;;40.54;32.14;97445.56;5111245;27;20054;-73
2022/06/04 04:44:16;;;;;;;26.70;11.65;;;;;;;40.72;31.94;97452.31;5124923;27;20063;-72
2022/06/04 04:46:58;;;;;;;40.65;11.82;;;;;;;40.89;31.33;97447.47;5108569;27;20525;-73
2022/06/04 04:49:47;;;;;;;27.13;11.10;;;;;;;40.86;34.39;97446.13;5125335;27;20339;-73
2022/06/04 04:52:28;;;;;;;35.97;10.43;;;;;;;40.88;32.49;97446.66;5127317;27;20043;-72
2022/06/04 04:55:20;;;;;;;25.08;8.55;;;;;;;40.88;28.50;97451.25;5124340;27;20418;-73
2022/06/04 04:58:02;;;;;;;22.57;6.60;;;;;;;41.03;27.56;97456.66;5125392;27;20043;-73
2022/06/04 05:00:52;;;;;;;31.95;9.23;;;;;;;40.89;30.10;97447.47;5124917;27;20482;-73
2022/06/04 05:03:44;;;;;;;24.73;8.20;;;;;;;41.23;31.32;97448.56;5124956;27;20175;-71
2022/06/04 05:06:26;;;;;;;26.95;9.73;;;;;;;41.19;29.81;97447.47;5124949;27;20561;-72
2022/06/04 05:09:22;;;;;;;33.90;13.35;;;;;;;41.25;24.76;97457.22;5111871;27;20043;-73
2022/06/04 05:11:57;;;;;;;35.58;12.75;;;;;;;41.38;25.33;97458.53;5088300;28;20095;-73
2022/06/04 05:14:46;;;;;;;48.90;10.02;;;;;;;41.21;25.62;97445.31;5104346;28;20051;-74
2022/06/04 05:17:28;;;;;;;29.80;9.23;;;;;;;41.36;21.71;97449.88;5107120;27;20053;-73
2022/06/04 05:20:17;;;;;;;20.80;8.68;;;;;;;41.24;25.35;97450.19;5123093;27;20515;-70
2022/06/04 05:23:00;;;;;;;;;;;;;;;41.40;31.94;97442.03;5123155;27;20039;-72
2022/06/04 05:25:48;;;;;;;35.33;10.20;;;;;;;41.47;27.60;97440.66;5106461;28;20358;-70
2022/06/04 05:28:31;;;;;;;27.43;7.70;;;;;;;41.33;19.54;97458.56;5124308;27;20329;-72
2022/06/04 05:31:20;;;;;;;35.75;8.02;;;;;;;41.49;19.37;97445.81;5104030;27;20366;-72
2022/06/04 05:34:03;;;;;;;21.85;7.80;;;;;;;41.66;21.42;97451.75;5120879;27;20051;-73
2022/06/04 05:36:54;;;;;;;42.72;10.38;;;;;;;41.46;16.69;97457.16;5126065;27;20046;-70
2022/06/04 05:39:38;;;;;;;32.90;9.80;;;;;;;41.68;18.14;97449.53;5122600;27;20051;-69
2022/06/04 05:42:27;;;;;;;32.83;9.40;;;;;;;41.85;22.36;97441.91;5126500;27;20046;-70
2022/06/04 05:45:16;;;;;;;198.45;21.35;;;;;;;41.87;21.45;97447.84;5125442;27;20486;-70
2022/06/04 05:47:58;;;;;;;34.97;9.57;;;;;;;41.69;20.98;97444.94;5100627;27;20039;-71
2022/06/04 05:50:47;;;;;;;47.35;12.32;;;;;;;41.89;27.83;97442.16;5127433;27;20047;-73
2022/06/04 05:53:36;;;;;;;58.45;13.10;;;;;;;41.70;42.74;97441.16;5129385;27;20062;-68
2022/06/04 05:56:23;;;;;;;43.70;12.07;;;;;;;41.25;34.16;97435.59;5111897;27;20078;-69
2022/06/04 05:59:15;;;;;;;34.97;11.23;;;;;;;40.70;27.84;97433.72;5127252;27;20291;-72
2022/06/04 06:02:04;;;;;;;22.90;9.20;;;;;;;41.02;24.80;97433.44;5125758;27;20050;-72
2022/06/04 06:05:00;;;;;;;27.95;6.75;;;;;;;40.99;22.77;97442.06;5125165;27;20050;-72
2022/06/04 06:07:36;;;;;;;14.10;4.53;;;;;;;40.95;18.15;97448.31;5126705;27;20417;-72
2022/06/04 06:10:24;;;;;;;;;;;;;;;40.90;17.91;97443.69;5127531;27;20051;-70
2022/06/04 06:13:07;;;;;;;23.58;4.45;;;;;;;41.02;22.56;97441.53;5126149;27;19934;-68
2022/06/04 06:15:55;;;;;;;15.00;6.28;;;;;;;41.09;22.52;97435.84;5149019;27;20082;-71
2022/06/04 06:18:38;;;;;;;26.17;7.03;;;;;;;41.05;20.06;97440.16;5128377;27;20046;-73
2022/06/04 06:21:37;;;;;;;33.72;6.80;;;;;;;41.14;19.58;97441.25;5128149;27;20055;-68
2022/06/04 06:24:26;;;;;;;21.70;6.90;;;;;;;41.10;23.20;97434.78;5122032;27;20051;-70
2022/06/04 06:27:15;;;;;;;30.98;8.88;;;;;;;40.94;20.48;97428.56;5128469;27;20621;-70
2022/06/04 06:29:57;;;;;;;20.87;7.80;;;;;;;41.06;18.69;97429.09;5126535;27;20760;-71
2022/06/04 06:32:46;;;;;;;23.52;7.50;;;;;;;41.09;24.36;97425.03;5129402;27;20047;-70
2022/06/04 06:35:29;;;;;;;29.90;8.00;;;;;;;40.89;25.63;97415.03;5130087;27;20046;-71
2022/06/04 06:38:18;;;;;;;28.05;7.07;;;;;;;40.79;23.05;97407.75;5134763;27;20066;-70
2022/06/04 06:41:08;;;;;;;23.67;6.30;;;;;;;40.78;21.55;97416.16;5129009;27;20055;-71
2022/06/04 06:43:59;;;;;;;31.63;6.88;;;;;;;40.88;22.52;97414.22;5146956;27;20043;-74
2022/06/04 06:46:42;;;;;;;;;;;;;;;40.95;22.43;97408.53;5149401;27;20058;-73
2022/06/04 06:49:35;;;;;;;33.03;7.22;;;;;;;41.04;21.74;97415.03;5092997;27;20019;-74
2022/06/04 06:52:24;;;;;;;35.40;6.97;;;;;;;41.08;19.69;97407.19;5127549;27;20095;-74
2022/06/04 06:55:07;;;;;;;19.95;5.80;;;;;;;41.15;22.10;97410.44;5128557;27;20047;-73
2022/06/04 06:57:56;;;;;;;23.15;6.18;;;;;;;41.13;26.61;97397.19;5127956;27;20066;-74
2022/06/04 07:00:38;;;;;;;25.17;6.20;;;;;;;40.87;24.50;97400.97;5121443;27;20177;-73
2022/06/04 07:03:27;;;;;;;28.48;5.47;;;;;;;40.96;20.50;97399.34;5122696;27;20155;-73
2022/06/04 07:06:10;;;;;;;27.67;5.25;;;;;;;40.96;19.29;97410.16;5106832;27;20304;-74
2022/06/04 07:09:01;;;;;;;27.10;6.05;;;;;;;41.10;22.38;97399.66;5123838;27;20047;-75
2022/06/04 07:11:44;;;;;;;25.85;5.78;;;;;;;41.19;22.74;97392.56;5128668;27;20111;-75
2022/06/04 07:14:40;;;;;;;14.48;5.20;;;;;;;41.20;18.61;97397.72;5113076;27;20055;-74
2022/06/04 07:17:15;;;;;;;28.23;5.72;;;;;;;41.08;21.14;97389.06;5128373;27;20123;-73
2022/06/04 07:20:04;;;;;;;31.52;6.07;;;;;;;41.16;23.39;97390.44;5104194;27;20541;-74
2022/06/04 07:30:16;;;;;;;20.00;4.53;;;;;;;41.03;20.77;97378.25;4943751;28;20048;-74
2022/06/04 07:33:05;;;;;;;16.63;4.93;;;;;;;41.07;19.13;97394.75;4929950;29;20062;-73
2022/06/04 07:35:56;;;;;;;19.30;5.10;;;;;;;41.10;19.44;97384.25;4926672;29;20155;-75
2022/06/04 07:38:37;;;;;;;9.68;4.82;;;;;;;41.18;19.66;97383.69;4929527;29;20127;-75
2022/06/04 07:41:34;;;;;;;28.17;4.82;;;;;;;41.21;21.29;97385.00;4928479;29;20051;-75
2022/06/04 07:44:24;;;;;;;21.77;6.43;;;;;;;41.09;19.50;97379.06;4929980;29;20141;-76
2022/06/04 07:47:14;;;;;;;21.02;5.60;;;;;;;41.09;21.66;97371.81;4929306;29;20134;-78
2022/06/04 07:49:57;;;;;;;25.47;6.53;;;;;;;40.93;19.63;97372.88;4929876;29;20047;-72
2022/06/04 07:52:46;;;;;;;14.23;5.40;;;;;;;40.86;17.90;97380.47;4917843;29;20302;-75
2022/06/04 07:55:28;;;;;;;36.63;7.63;;;;;;;40.81;21.46;97364.25;4917516;28;20048;-70
2022/06/04 07:58:17;;;;;;;28.13;7.45;;;;;;;40.76;21.85;97365.06;4940560;28;20055;-72
2022/06/04 08:00:59;;;;;;;25.98;7.30;;;;;;;40.70;21.72;97358.06;4928040;29;20047;-73
2022/06/04 08:03:50;;;;;;;15.98;6.75;;;;;;;40.63;23.20;97354.75;4927638;29;20052;-70
2022/06/04 08:06:40;;;;;;;29.25;8.35;;;;;;;40.52;19.45;97356.69;4926265;29;20047;-75
2022/06/04 08:09:23;;;;;;;29.98;8.68;;;;;;;40.61;23.40;97345.34;4925441;29;20134;-76
2022/06/04 08:12:13;;;;;;;33.10;6.90;;;;;;;40.58;18.19;97348.56;4915425;29;20051;-76
2022/06/04 08:15:03;;;;;;;23.83;5.70;;;;;;;40.67;19.83;97353.19;4928172;29;20079;-71
2022/06/04 08:17:47;;;;;;;37.90;7.78;;;;;;;40.62;21.06;97344.25;4927276;29;20048;-73
2022/06/04 08:20:37;;;;;;;27.42;6.55;;;;;;;40.63;19.40;97345.88;4925434;29;20306;-74
2022/06/04 08:23:26;;;;;;;26.25;8.18;;;;;;;40.59;22.84;97336.69;4925530;29;20051;-75
2022/06/04 08:26:08;;;;;;;31.52;7.18;;;;;;;40.48;23.66;97335.88;4923574;29;20051;-70
2022/06/04 08:29:04;;;;;;;25.27;5.63;;;;;;;40.45;20.71;97333.72;4934337;28;20106;-74
2022/06/04 08:32:00;;;;;;;26.13;6.20;;;;;;;40.41;22.81;97322.63;4927368;29;20082;-73
2022/06/04 08:34:35;;;;;;;27.33;5.43;;;;;;;40.41;19.11;97330.75;4924137;29;20077;-74
2022/06/04 08:37:31;;;;;;;;;;;;;;;40.45;19.02;97328.31;4925735;29;20059;-73
2022/06/04 08:40:07;;;;;;;17.90;6.30;;;;;;;40.45;20.45;97329.13;4926676;29;20013;-72
2022/06/04 08:43:29;;;;;;;22.67;5.95;;;;;;;40.36;21.43;97317.25;4925608;29;20167;-73
2022/06/04 08:46:35;;;;;;;16.42;5.43;;;;;;;40.36;19.57;97319.13;4938001;28;20115;-73
2022/06/04 08:49:38;;;;;;;14.15;4.25;;;;;;;40.40;17.69;97331.81;4926953;28;20054;-70
2022/06/04 08:52:35;;;;;;;19.02;3.88;;;;;;;40.30;23.93;97310.25;4925791;28;20051;-72
2022/06/04 08:59:05;;;;;;;21.90;5.05;;;;;;;40.43;19.96;97314.28;4927776;29;20193;-71
2022/06/04 09:01:53;;;;;;;21.35;4.63;;;;;;;40.26;19.18;97314.53;4926493;29;20692;-72
2022/06/04 09:04:46;;;;;;;21.45;4.68;;;;;;;40.19;21.07;97297.78;4926738;29;20051;-72
2022/06/04 09:07:37;;;;;;;15.43;4.50;;;;;;;40.08;19.89;97298.84;4926821;29;20054;-71
2022/06/04 09:10:41;;;;;;;18.75;4.03;;;;;;;40.04;20.13;97295.06;4926138;28;20500;-68
2022/06/04 09:13:35;;;;;;;16.90;4.13;;;;;;;39.88;19.96;97294.25;4925949;29;20458;-71
2022/06/04 09:16:39;;;;;;;14.20;3.85;;;;;;;39.78;22.00;97280.69;4925752;28;20055;-69
2022/06/04 09:19:27;;;;;;;20.33;3.88;;;;;;;39.85;19.76;97294.75;4927782;28;20055;-72
2022/06/04 09:22:42;;;;;;;27.95;5.82;;;;;;;39.89;20.91;97286.97;4932058;29;20062;-70
2022/06/04 09:25:30;;;;;;;18.95;4.60;;;;;;;39.90;17.91;97291.28;4926525;29;20059;-70
2022/06/04 09:28:42;;;;;;;13.10;3.38;;;;;;;39.87;18.79;97278.31;4943482;28;20051;-70
2022/06/04 09:32:02;;;;;;;22.75;3.38;;;;;;;39.88;20.47;97279.94;4945555;28;20054;-70
2022/06/04 09:34:40;;;;;;;13.27;3.90;;;;;;;39.83;18.73;97269.97;4943924;28;20429;-71
2022/06/04 09:37:30;;;;;;;22.88;3.67;;;;;;;39.91;18.66;97284.81;4962626;28;20157;-71
2022/06/04 09:40:22;;;;;;;17.37;3.83;;;;;;;39.87;20.64;97278.31;4961817;28;20054;-73
2022/06/04 09:43:17;;;;;;;15.57;2.97;;;;;;;39.72;20.17;97263.69;4962062;28;20113;-71
2022/06/04 09:46:17;;;;;;;19.80;3.17;;;;;;;39.79;19.83;97269.63;4954544;28;20106;-68
2022/06/04 09:49:41;;;;;;;23.58;3.50;;;;;;;39.71;21.55;97264.78;4961806;28;20113;-70
2022/06/04 09:52:41;;;;;;;19.52;3.20;;;;;;;39.49;20.44;97258.78;4960483;28;20541;-73
2022/06/04 09:55:33;;;;;;;10.50;3.45;;;;;;;39.42;21.57;97257.44;4960768;28;20082;-73
2022/06/04 09:58:34;;;;;;;18.00;3.35;;;;;;;39.56;20.29;97255.84;4960820;28;20043;-72
2022/06/04 10:01:16;;;;;;;17.85;3.33;;;;;;;39.46;21.14;97248.53;4958587;28;20065;-71
2022/06/04 10:04:09;;;;;;;16.90;3.10;;;;;;;39.43;19.92;97250.97;4960809;28;20089;-72
2022/06/04 10:06:51;;;;;;;26.60;3.33;;;;;;;39.43;21.17;97246.38;4968231;28;20039;-73
2022/06/04 10:09:56;;;;;;;15.27;3.90;;;;;;;39.34;20.16;97242.56;4965936;28;20169;-73
2022/06/04 10:15:55;;;;;;;11.25;3.05;;;;;;;39.57;19.16;97246.69;4963898;28;20043;-74
2022/06/04 10:18:37;;;;;;;18.45;3.10;;;;;;;39.43;19.93;97241.00;4946247;28;20555;-72
2022/06/04 10:21:28;;;;;;;18.00;3.15;;;;;;;39.42;18.30;97246.66;4964318;28;20085;-73
2022/06/04 10:24:31;;;;;;;18.23;3.17;;;;;;;39.55;18.66;97244.25;4964625;28;20050;-73
2022/06/04 10:27:22;;;;;;;13.25;3.13;;;;;;;39.55;17.63;97238.84;4967730;28;20042;-75
2022/06/04 10:30:57;;;;;;;13.38;2.80;;;;;;;39.48;17.01;97238.31;4962865;28;20867;-73
2022/06/04 10:34:14;;;;;;;17.63;3.03;;;;;;;39.45;17.02;97238.81;4961115;28;20047;-75
2022/06/04 10:37:31;;;;;;;17.33;2.35;;;;;;;39.40;18.13;97236.94;4967421;28;20076;-73
2022/06/04 10:40:39;;;;;;;15.77;2.65;;;;;;;39.35;19.30;97238.78;4936321;28;20051;-74
2022/06/04 10:43:58;;;;;;;14.38;2.88;;;;;;;39.27;16.15;97231.22;4968069;28;20549;-73
2022/06/04 10:47:08;;;;;;;18.63;3.05;;;;;;;39.22;18.29;97234.69;4968029;28;20054;-73
2022/06/04 10:50:22;;;;;;;23.20;3.45;;;;;;;39.31;18.42;97227.72;4967109;28;20050;-73
2022/06/04 10:53:22;;;;;;;15.73;3.30;;;;;;;39.25;19.48;97227.97;4968488;28;20051;-73
2022/06/04 10:56:17;;;;;;;21.13;2.83;;;;;;;39.17;17.20;97231.16;4966120;28;20157;-75
2022/06/04 10:59:26;;;;;;;12.73;3.05;;;;;;;39.10;19.37;97226.03;4969055;28;20141;-71
2022/06/04 11:02:33;;;;;;;31.33;3.10;;;;;;;38.85;21.59;97215.13;4966447;28;20059;-73
2022/06/04 11:05:22;;;;;;;14.05;2.25;;;;;;;38.81;18.17;97217.50;4964644;28;20054;-73
2022/06/04 11:08:37;;;;;;;13.18;2.25;;;;;;;38.79;19.81;97214.28;4964654;28;20136;-75
2022/06/04 11:11:22;;;;;;;17.45;2.53;;;;;;;38.61;19.97;97212.03;4963117;28;20066;-75
2022/06/04 11:14:23;;;;;;;10.38;2.30;;;;;;;38.55;22.06;97200.44;4965997;28;20051;-74
2022/06/04 11:17:31;;;;;;;10.65;2.85;;;;;;;38.54;19.61;97200.69;4948529;28;20039;-72
2022/06/04 11:20:24;;;;;;;20.55;3.30;;;;;;;38.52;19.18;97205.50;4951607;28;20628;-72
2022/06/04 11:23:30;;;;;;;13.65;2.88;;;;;;;38.46;22.68;97198.47;4965550;28;20058;-73
2022/06/04 11:26:26;;;;;;;13.88;2.33;;;;;;;38.61;16.57;97203.94;4950993;28;20078;-71
2022/06/04 11:29:22;;;;;;;18.92;2.53;;;;;;;38.68;18.54;97201.84;4963642;28;20394;-75
2022/06/04 11:32:31;;;;;;;13.02;2.33;;;;;;;38.63;19.78;97196.44;4966603;28;20055;-72
2022/06/04 11:35:23;;;;;;;7.90;2.25;;;;;;;38.56;20.71;97187.75;4966249;28;20054;-71
2022/06/04 11:38:17;;;;;;;12.45;2.63;;;;;;;38.32;20.49;97197.28;4966888;28;20057;-71
2022/06/04 11:41:12;;;;;;;7.30;2.10;;;;;;;38.49;21.77;97192.53;4966551;28;20105;-74
2022/06/04 11:44:44;;;;;;;14.68;3.08;;;;;;;38.40;21.53;97180.63;4966945;28;20054;-72
2022/06/04 11:48:20;;;;;;;16.52;2.67;;;;;;;38.33;20.83;97190.81;4949784;28;20121;-73
2022/06/04 11:51:34;;;;;;;10.30;1.90;;;;;;;38.10;22.60;97192.81;4965889;28;20059;-73
2022/06/04 11:54:33;;;;;;;12.05;2.38;;;;;;;38.06;21.17;97183.66;4947537;28;20099;-74
2022/06/04 11:57:34;;;;;;;14.20;2.83;;;;;;;37.85;21.10;97189.91;4960150;28;20082;-75
2022/06/04 12:00:32;;;;;;;10.88;2.47;;;;;;;37.81;22.89;97191.50;4967141;28;20214;-73
2022/06/04 12:03:38;;;;;;;14.45;3.35;;;;;;;37.72;23.92;97193.03;4966830;28;20054;-73
2022/06/04 12:06:28;;;;;;;10.82;2.53;;;;;;;37.44;25.63;97180.63;4945791;28;20122;-74
2022/06/04 12:09:23;;;;;;;8.30;2.30;;;;;;;37.20;25.47;97185.50;4945237;28;20059;-73
2022/06/04 12:12:15;;;;;;;23.25;3.00;;;;;;;37.42;20.01;97185.47;4963452;28;20074;-73
2022/06/04 12:14:56;;;;;;;12.30;2.55;;;;;;;37.29;22.19;97185.84;4965597;28;20062;-74
2022/06/04 12:18:10;;;;;;;16.05;2.45;;;;;;;37.28;20.46;97193.09;4961300;28;20512;-74
2022/06/04 12:24:23;;;;;;;13.13;2.15;;;;;;;37.22;20.57;97196.81;4964559;28;20054;-75
2022/06/04 12:27:24;;;;;;;16.83;2.42;;;;;;;37.30;18.14;97201.72;4965852;28;20070;-74
2022/06/04 12:30:24;;;;;;;19.23;2.80;;;;;;;37.33;19.20;97195.06;4964308;28;20137;-74
2022/06/04 12:33:03;;;;;;;12.90;3.08;;;;;;;37.26;21.74;97195.25;4965006;28;20446;-74
2022/06/04 12:35:59;;;;;;;21.73;3.35;;;;;;;37.23;19.54;97194.94;4961431;28;20047;-75
2022/06/04 12:38:47;;;;;;;19.42;3.88;;;;;;;37.09;26.13;97189.13;4964608;28;20081;-75
2022/06/04 12:41:48;;;;;;;17.42;2.78;;;;;;;36.91;21.35;97198.31;4966983;28;20101;-74
2022/06/04 12:44:38;;;;;;;14.85;2.70;;;;;;;37.20;19.89;97196.25;4964942;28;20128;-74
2022/06/04 12:47:31;;;;;;;12.55;2.50;;;;;;;37.01;19.93;97195.75;4966593;28;25478;-71
2022/06/04 12:50:29;;;;;;;14.93;2.90;;;;;;;37.00;20.71;97201.38;4966829;28;20050;-75
2022/06/04 12:53:22;;;;;;;15.57;2.40;;;;;;;36.92;19.19;97199.13;4968064;28;20168;-70
2022/06/04 12:56:25;;;;;;;14.18;5.53;;;;;;;36.87;19.92;97199.88;4977342;28;20216;-74
2022/06/04 12:59:46;;;;;;;17.80;3.50;;;;;;;36.76;20.94;97196.25;4978974;28;20058;-71
2022/06/04 13:02:45;;;;;;;14.13;2.95;;;;;;;36.66;22.47;97197.94;4963551;28;20131;-71
2022/06/04 13:05:27;;;;;;;17.20;3.10;;;;;;;36.52;22.31;97200.19;4948836;28;20069;-73
2022/06/04 13:08:56;;;;;;;12.52;2.67;;;;;;;36.36;22.96;97198.34;4965625;28;20080;-74
2022/06/04 13:11:56;;;;;;;12.52;2.60;;;;;;;36.16;24.13;97206.06;4946278;28;20114;-75
2022/06/04 13:15:11;;;;;;;17.17;2.50;;;;;;;36.00;23.25;97197.75;4946219;28;20101;-72
2022/06/04 13:17:53;;;;;;;17.88;2.72;;;;;;;35.85;26.29;97194.03;4950067;28;20066;-73
2022/06/04 13:20:56;;;;;;;20.95;3.38;;;;;;;35.71;23.22;97198.91;4965730;28;20138;-71
2022/06/04 13:23:55;;;;;;;18.13;3.17;;;;;;;35.59;26.13;97198.13;4964469;28;20410;-72
2022/06/04 13:26:51;;;;;;;17.40;3.30;;;;;;;35.45;23.81;97207.50;4947138;28;20374;-74
2022/06/04 13:29:37;;;;;;;16.80;3.08;;;;;;;35.30;24.79;97206.19;4964134;28;20051;-74
2022/06/04 13:32:29;;;;;;;16.13;3.58;;;;;;;35.20;27.75;97199.81;4962860;28;20046;-75
2022/06/04 13:35:22;;;;;;;11.95;2.53;;;;;;;35.01;28.75;97196.47;4965219;28;20051;-74
2022/06/04 13:38:13;;;;;;;16.00;2.90;;;;;;;34.84;26.06;97206.31;4965807;28;20165;-71
2022/06/04 13:41:03;;;;;;;17.67;3.22;;;;;;;34.74;30.09;97208.75;4966542;28;20043;-72
2022/06/04 13:43:53;;;;;;;14.63;3.42;;;;;;;34.62;29.45;97213.28;4933882;28;20047;-74